Main page
METAR-TAF:

METAR-TAF

Airports :

Gilze-Rijen Air Base

Gilze-Rijen, Netherlands

latitude: 51-34N, longitude: 004-56E, elevation: 15 m

Current weather observation

The report was made 32 minutes ago, at 16:25 UTC
Wind 7 kt from the East, varying between Northeast and East/Southeast
Temperature 15°C
Humidity 82%
Pressure 1009 hPa
Visibility 10 km or more
no clouds below 1500 m and no cumulonimbus

METAR: EHGR 231625Z AUTO 08009KT 040V110 9999 OVC130 15/12 Q1009 BLU 09007KT CAVOK

Time: 18:57 (16:57 UTC)

Forecast

The report was made 4 hours and 13 minutes ago, at 12:44 UTC
Forecast valid from 23 at 13 UTC to 24 at 01 UTC
Wind 7 kt from the East
Visibility 10 km or more
no clouds below 1500 m and no cumulonimbus
Probability 40%
from 23 at 22 UTC to 24 at 01 UTC
Visibility: 4000 m
mist

TAF: EHGR 231244Z 2313/2401 08007KT CAVOK PROB40 2322/2401 4000 BR

Weather observations and forecasts of more than 4000 airports (METAR and TAF reports).

The available stations are represented by yellow and red dots on the map.

Hover mouse over dot to see the name of the station.

Then click to see weather observations and forecasts.

To change the map : click on the green buttons with a black cross to zoom in, on the green button with a dash to zoom out, or on the green arrows for adjacent maps.


METAR-TAF: